createdAt,value
2023-02-20T06:49:47.549Z,7.25
2023-02-20T06:52:49.413Z,6.72
2023-02-20T06:55:51.065Z,7.03
2023-02-20T06:58:54.064Z,6.50
2023-02-20T07:01:55.752Z,6.20
2023-02-20T07:04:57.695Z,5.50
2023-02-20T07:07:59.390Z,5.35
2023-02-20T07:11:01.277Z,5.25
2023-02-20T07:14:02.957Z,5.85
2023-02-20T07:17:04.898Z,4.32
2023-02-20T07:20:06.989Z,4.20
2023-02-20T07:23:08.682Z,3.72
2023-02-20T07:26:18.794Z,3.42
2023-02-20T07:29:20.733Z,3.40
2023-02-20T07:32:23.532Z,2.92
2023-02-20T07:35:25.265Z,3.72
2023-02-20T07:38:26.932Z,2.80
2023-02-20T07:41:32.441Z,2.60
2023-02-20T07:44:34.238Z,2.85
2023-02-20T07:47:35.970Z,3.80
2023-02-20T07:50:37.671Z,3.40
2023-02-20T07:53:39.602Z,3.42
2023-02-20T07:56:41.989Z,2.85
2023-02-20T07:59:43.780Z,3.58
2023-02-20T08:02:45.498Z,2.95
2023-02-20T08:05:49.885Z,3.28
2023-02-20T08:08:52.638Z,2.83
2023-02-20T08:11:54.398Z,3.80
2023-02-20T08:14:56.070Z,5.07
2023-02-20T08:17:58.014Z,3.22
2023-02-20T08:20:59.696Z,3.28
2023-02-20T08:24:01.568Z,2.90
2023-02-20T08:27:03.799Z,2.60
2023-02-20T08:30:14.921Z,2.45
2023-02-20T08:33:17.020Z,2.53
2023-02-20T08:36:19.107Z,2.95
2023-02-20T08:39:20.770Z,2.50
2023-02-20T08:42:22.539Z,2.83
2023-02-20T08:45:24.394Z,2.92
2023-02-20T08:48:26.133Z,3.13
2023-02-20T08:51:27.783Z,2.60
2023-02-20T08:54:29.579Z,2.60
2023-02-20T08:57:31.256Z,2.53
2023-02-20T09:00:34.504Z,2.80
2023-02-20T09:03:38.670Z,3.15
2023-02-20T09:06:40.337Z,2.60
2023-02-20T09:09:42.062Z,2.35
2023-02-20T09:12:44.049Z,2.92
2023-02-20T09:15:45.692Z,2.40
2023-02-20T09:18:47.846Z,2.92
2023-02-20T09:21:49.680Z,1.98
2023-02-20T09:24:52.491Z,2.30
2023-02-20T09:27:54.138Z,2.38
2023-02-20T09:30:57.349Z,3.78
2023-02-20T09:33:59.050Z,3.13
2023-02-20T09:37:00.782Z,3.00
2023-02-20T09:40:02.754Z,3.05
2023-02-20T09:43:22.292Z,2.03
2023-02-20T09:46:24.951Z,2.05
2023-02-20T09:49:34.090Z,2.78
2023-02-20T09:52:40.797Z,2.30
2023-02-20T09:55:43.873Z,1.90
2023-02-20T09:58:53.132Z,1.95
2023-02-20T10:02:10.141Z,2.17
2023-02-20T10:05:25.387Z,2.58
2023-02-20T10:08:27.115Z,1.92
2023-02-20T10:11:31.583Z,2.30
2023-02-20T10:14:44.224Z,2.05
2023-02-20T10:17:59.941Z,1.48
2023-02-20T10:21:07.576Z,4.38
2023-02-20T10:24:23.905Z,2.13
2023-02-20T10:27:31.533Z,1.88
2023-02-20T10:30:42.648Z,2.67
2023-02-20T10:33:51.023Z,2.65
2023-02-20T10:37:01.638Z,2.10
2023-02-20T10:40:28.502Z,2.35
2023-02-20T10:43:58.290Z,2.10
2023-02-20T10:47:10.484Z,2.33
2023-02-20T10:50:28.794Z,2.20
2023-02-20T10:54:01.570Z,2.35
2023-02-20T10:57:30.852Z,2.15
2023-02-20T11:00:47.534Z,1.75
2023-02-20T11:03:53.959Z,1.90
2023-02-20T11:07:24.784Z,1.83
2023-02-20T11:10:26.469Z,2.55
2023-02-20T11:13:28.119Z,2.30
2023-02-20T11:16:33.922Z,2.15
2023-02-20T11:19:51.263Z,2.03
2023-02-20T11:22:53.206Z,2.10
2023-02-20T11:25:54.891Z,1.80
2023-02-20T11:29:18.077Z,1.80
2023-02-20T11:32:30.959Z,1.73
2023-02-20T11:35:37.339Z,1.83
2023-02-20T11:38:39.836Z,2.20
2023-02-20T11:41:41.523Z,1.67
2023-02-20T11:44:44.129Z,2.33
2023-02-20T11:47:45.799Z,2.28
2023-02-20T11:50:49.943Z,4.93
2023-02-20T11:54:26.046Z,1.27
2023-02-20T11:57:29.719Z,1.48
2023-02-20T12:00:46.603Z,1.45
2023-02-20T12:03:55.904Z,2.90
2023-02-20T12:06:57.573Z,1.40
2023-02-20T12:10:09.050Z,1.75
2023-02-20T12:13:15.238Z,1.80
2023-02-20T12:16:30.407Z,1.50
2023-02-20T12:19:44.030Z,1.60
2023-02-20T12:23:07.002Z,1.23
2023-02-20T12:26:24.620Z,1.60
2023-02-20T12:29:33.638Z,1.50
2023-02-20T12:32:44.498Z,3.03
2023-02-20T12:36:25.067Z,1.67
2023-02-20T12:39:44.471Z,1.20
2023-02-20T12:42:52.624Z,1.48
2023-02-20T12:46:05.641Z,1.52
2023-02-20T12:49:26.136Z,1.65
2023-02-20T12:53:04.287Z,1.30
2023-02-20T12:56:29.019Z,1.60
2023-02-20T12:59:44.752Z,1.45
2023-02-20T13:02:49.917Z,1.38
2023-02-20T13:09:19.643Z,1.50
2023-02-20T13:12:22.373Z,1.77
2023-02-20T13:15:54.292Z,1.88
2023-02-20T13:19:16.067Z,1.30
2023-02-20T13:22:18.663Z,1.50
2023-02-20T13:25:41.924Z,1.40
2023-02-20T13:28:45.467Z,1.25
2023-02-20T13:32:02.522Z,1.30
2023-02-20T13:35:41.454Z,1.10
2023-02-20T13:39:21.343Z,1.48
2023-02-20T13:42:29.102Z,1.30
2023-02-20T13:45:42.184Z,1.25
2023-02-20T13:48:49.903Z,1.23
2023-02-20T13:51:52.370Z,1.17
2023-02-20T13:54:54.057Z,1.73
2023-02-20T13:58:09.884Z,1.40
2023-02-20T14:01:12.053Z,1.13
2023-02-20T14:04:22.024Z,1.23
2023-02-20T14:07:32.449Z,1.35
2023-02-20T14:10:38.689Z,1.63
2023-02-20T14:13:44.191Z,1.30
2023-02-20T14:16:46.196Z,1.98
2023-02-20T14:19:57.430Z,1.75
2023-02-20T14:23:13.207Z,1.55
2023-02-20T14:26:25.584Z,2.45
2023-02-20T14:29:33.537Z,1.45
2023-02-20T14:32:36.201Z,1.65
2023-02-20T14:35:55.942Z,1.63
2023-02-20T14:39:14.670Z,1.42
2023-02-20T14:42:24.234Z,1.13
2023-02-20T14:45:27.233Z,1.30
2023-02-20T14:48:32.997Z,1.52
2023-02-20T14:51:35.305Z,1.38
2023-02-20T14:54:42.896Z,1.40
2023-02-20T14:57:44.580Z,1.13
2023-02-20T15:00:50.909Z,1.90
2023-02-20T15:04:07.126Z,2.08
2023-02-20T15:07:12.091Z,1.70
2023-02-20T15:10:38.893Z,1.38
2023-02-20T15:13:43.569Z,4.68
2023-02-20T15:16:45.369Z,2.28
2023-02-20T15:19:47.748Z,1.65
2023-02-20T15:22:49.593Z,1.10
2023-02-20T15:25:51.426Z,2.15
2023-02-20T15:29:13.433Z,1.60
2023-02-20T15:32:17.840Z,2.15
2023-02-20T15:35:23.482Z,1.98
2023-02-20T15:38:30.741Z,2.00
2023-02-20T15:41:32.556Z,1.70
2023-02-20T15:44:34.198Z,1.58
2023-02-20T15:47:35.884Z,1.83
2023-02-20T15:50:37.518Z,1.55
2023-02-20T15:53:39.672Z,1.63
2023-02-20T15:56:41.590Z,1.75
2023-02-20T15:59:44.011Z,1.77
2023-02-20T16:02:45.837Z,1.90
2023-02-20T16:05:47.856Z,1.70
2023-02-20T16:08:50.691Z,3.35
2023-02-20T16:11:52.402Z,2.15
2023-02-20T16:14:54.838Z,1.70
2023-02-20T16:17:57.167Z,1.65
2023-02-20T16:20:59.055Z,1.52
2023-02-20T16:24:01.037Z,1.83
2023-02-20T16:27:04.404Z,1.40
2023-02-20T16:30:16.145Z,1.58
2023-02-20T16:33:20.306Z,1.65
2023-02-20T16:36:25.128Z,2.00
2023-02-20T16:39:27.731Z,1.95
2023-02-20T16:42:33.854Z,1.83
2023-02-20T16:45:37.027Z,2.03
2023-02-20T16:48:43.166Z,2.38
2023-02-20T16:51:59.249Z,2.03
2023-02-20T16:55:02.928Z,1.83
2023-02-20T16:58:05.748Z,2.33
